sensor_id;sensor_type;location;lat;lon;timestamp;pressure;altitude;pressure_sealevel;temperature;humidity
47430;BME280;33181;49.246;7.372;2023-02-03T00:01:14;100125.69;;;7.03;95.31
47430;BME280;33181;49.246;7.372;2023-02-03T00:03:41;100120.66;;;6.99;95.75
47430;BME280;33181;49.246;7.372;2023-02-03T00:06:07;100125.63;;;7.05;95.50
47430;BME280;33181;49.246;7.372;2023-02-03T00:08:32;100128.31;;;7.03;95.59
47430;BME280;33181;49.246;7.372;2023-02-03T00:10:59;100127.50;;;7.01;95.30
47430;BME280;33181;49.246;7.372;2023-02-03T00:13:25;100127.38;;;7.04;95.16
47430;BME280;33181;49.246;7.372;2023-02-03T00:15:51;100129.56;;;6.94;96.04
47430;BME280;33181;49.246;7.372;2023-02-03T00:18:17;100133.84;;;6.95;96.62
47430;BME280;33181;49.246;7.372;2023-02-03T00:20:43;100139.03;;;6.97;96.79
47430;BME280;33181;49.246;7.372;2023-02-03T00:23:10;100137.25;;;6.97;97.04
47430;BME280;33181;49.246;7.372;2023-02-03T00:25:38;100144.44;;;6.92;97.44
47430;BME280;33181;49.246;7.372;2023-02-03T00:28:06;100157.31;;;6.97;97.84
47430;BME280;33181;49.246;7.372;2023-02-03T00:30:35;100156.72;;;6.90;98.34
47430;BME280;33181;49.246;7.372;2023-02-03T00:33:03;100158.69;;;6.85;99.22
47430;BME280;33181;49.246;7.372;2023-02-03T00:35:29;100152.59;;;6.85;100.00
47430;BME280;33181;49.246;7.372;2023-02-03T00:37:56;100129.88;;;6.87;100.00
47430;BME280;33181;49.246;7.372;2023-02-03T00:40:24;100122.88;;;6.67;100.00
47430;BME280;33181;49.246;7.372;2023-02-03T00:42:51;100134.91;;;6.71;100.00
47430;BME280;33181;49.246;7.372;2023-02-03T00:45:17;100135.81;;;6.70;100.00
47430;BME280;33181;49.246;7.372;2023-02-03T00:47:45;100127.84;;;6.73;100.00
47430;BME280;33181;49.246;7.372;2023-02-03T00:50:11;100127.94;;;6.71;100.00
47430;BME280;33181;49.246;7.372;2023-02-03T00:52:37;100124.06;;;6.80;100.00
47430;BME280;33181;49.246;7.372;2023-02-03T00:55:04;100120.94;;;6.72;100.00
47430;BME280;33181;49.246;7.372;2023-02-03T00:57:30;100107.09;;;6.70;100.00
47430;BME280;33181;49.246;7.372;2023-02-03T00:59:56;100110.63;;;6.69;100.00
47430;BME280;33181;49.246;7.372;2023-02-03T01:02:23;100117.31;;;6.74;100.00
47430;BME280;33181;49.246;7.372;2023-02-03T01:04:48;100110.56;;;6.70;100.00
47430;BME280;33181;49.246;7.372;2023-02-03T01:07:14;100116.81;;;6.66;100.00
47430;BME280;33181;49.246;7.372;2023-02-03T01:09:40;100129.03;;;6.66;100.00
47430;BME280;33181;49.246;7.372;2023-02-03T01:12:06;100125.72;;;6.62;100.00
47430;BME280;33181;49.246;7.372;2023-02-03T01:14:32;100116.81;;;6.66;100.00
47430;BME280;33181;49.246;7.372;2023-02-03T01:16:59;100108.91;;;6.68;100.00
47430;BME280;33181;49.246;7.372;2023-02-03T01:19:24;100126.16;;;6.72;100.00
47430;BME280;33181;49.246;7.372;2023-02-03T01:21:50;100120.22;;;6.68;100.00
47430;BME280;33181;49.246;7.372;2023-02-03T01:24:16;100119.31;;;6.69;100.00
47430;BME280;33181;49.246;7.372;2023-02-03T01:26:42;100115.72;;;6.72;100.00
47430;BME280;33181;49.246;7.372;2023-02-03T01:29:09;100113.03;;;6.73;100.00
47430;BME280;33181;49.246;7.372;2023-02-03T01:31:38;100110.25;;;6.78;100.00
47430;BME280;33181;49.246;7.372;2023-02-03T01:34:08;100101.81;;;6.71;100.00
47430;BME280;33181;49.246;7.372;2023-02-03T01:36:35;100099.47;;;6.65;100.00
47430;BME280;33181;49.246;7.372;2023-02-03T01:39:02;100095.34;;;6.60;100.00
47430;BME280;33181;49.246;7.372;2023-02-03T01:41:32;100091.81;;;6.61;100.00
47430;BME280;33181;49.246;7.372;2023-02-03T01:44:00;100079.56;;;6.63;100.00
47430;BME280;33181;49.246;7.372;2023-02-03T01:46:41;100065.59;;;6.64;100.00
47430;BME280;33181;49.246;7.372;2023-02-03T01:49:20;100047.66;;;6.56;100.00
47430;BME280;33181;49.246;7.372;2023-02-03T01:51:50;100025.75;;;6.59;100.00
47430;BME280;33181;49.246;7.372;2023-02-03T01:54:25;100002.56;;;6.53;100.00
47430;BME280;33181;49.246;7.372;2023-02-03T01:56:58;99986.13;;;6.50;100.00
47430;BME280;33181;49.246;7.372;2023-02-03T01:59:26;100008.75;;;6.50;100.00
47430;BME280;33181;49.246;7.372;2023-02-03T02:01:54;100043.41;;;6.54;100.00
47430;BME280;33181;49.246;7.372;2023-02-03T02:04:21;100044.13;;;6.57;100.00
47430;BME280;33181;49.246;7.372;2023-02-03T02:06:50;100050.25;;;6.56;100.00
47430;BME280;33181;49.246;7.372;2023-02-03T02:09:16;100047.53;;;6.59;100.00
47430;BME280;33181;49.246;7.372;2023-02-03T02:11:42;100037.06;;;6.59;100.00
47430;BME280;33181;49.246;7.372;2023-02-03T02:14:07;100021.34;;;6.61;100.00
47430;BME280;33181;49.246;7.372;2023-02-03T02:17:02;100015.81;;;6.48;100.00
47430;BME280;33181;49.246;7.372;2023-02-03T02:19:48;100007.97;;;6.48;100.00
47430;BME280;33181;49.246;7.372;2023-02-03T02:31:46;100011.38;;;6.50;100.00
47430;BME280;33181;49.246;7.372;2023-02-03T02:34:56;100020.09;;;6.49;100.00
47430;BME280;33181;49.246;7.372;2023-02-03T02:37:52;100025.31;;;6.49;100.00
47430;BME280;33181;49.246;7.372;2023-02-03T02:47:03;100033.38;;;6.44;100.00
47430;BME280;33181;49.246;7.372;2023-02-03T02:50:25;100029.06;;;6.43;100.00
47430;BME280;33181;49.246;7.372;2023-02-03T02:52:20;100022.91;;;6.44;100.00
47430;BME280;33181;49.246;7.372;2023-02-03T02:54:57;100021.09;;;6.46;100.00
47430;BME280;33181;49.246;7.372;2023-02-03T02:57:26;100033.38;;;6.44;100.00
47430;BME280;33181;49.246;7.372;2023-02-03T02:59:53;100030.53;;;6.49;100.00
47430;BME280;33181;49.246;7.372;2023-02-03T03:02:19;100018.16;;;6.54;100.00
47430;BME280;33181;49.246;7.372;2023-02-03T03:04:46;100043.31;;;6.55;100.00
47430;BME280;33181;49.246;7.372;2023-02-03T03:07:18;100062.72;;;6.49;100.00
47430;BME280;33181;49.246;7.372;2023-02-03T03:09:55;100051.25;;;6.54;100.00
47430;BME280;33181;49.246;7.372;2023-02-03T03:12:33;100072.13;;;6.54;100.00
47430;BME280;33181;49.246;7.372;2023-02-03T03:15:08;100073.53;;;6.61;100.00
47430;BME280;33181;49.246;7.372;2023-02-03T03:17:47;100089.28;;;6.59;100.00
47430;BME280;33181;49.246;7.372;2023-02-03T03:20:20;100092.78;;;6.58;100.00
47430;BME280;33181;49.246;7.372;2023-02-03T03:22:56;100077.97;;;6.59;100.00
47430;BME280;33181;49.246;7.372;2023-02-03T03:25:31;100078.72;;;6.62;100.00
47430;BME280;33181;49.246;7.372;2023-02-03T03:28:04;100079.59;;;6.61;100.00
47430;BME280;33181;49.246;7.372;2023-02-03T03:30:36;100078.38;;;6.70;100.00
47430;BME280;33181;49.246;7.372;2023-02-03T03:33:05;100082.50;;;6.76;100.00
47430;BME280;33181;49.246;7.372;2023-02-03T03:35:44;100101.53;;;6.78;100.00
47430;BME280;33181;49.246;7.372;2023-02-03T03:38:31;100094.16;;;6.67;100.00
47430;BME280;33181;49.246;7.372;2023-02-03T03:44:15;100089.91;;;6.64;100.00
47430;BME280;33181;49.246;7.372;2023-02-03T03:47:02;100093.25;;;6.68;100.00
47430;BME280;33181;49.246;7.372;2023-02-03T03:49:33;100083.84;;;6.64;100.00
47430;BME280;33181;49.246;7.372;2023-02-03T03:52:05;100082.81;;;6.68;100.00
47430;BME280;33181;49.246;7.372;2023-02-03T03:54:33;100071.13;;;6.77;100.00
47430;BME280;33181;49.246;7.372;2023-02-03T03:57:43;100066.13;;;6.72;100.00
47430;BME280;33181;49.246;7.372;2023-02-03T04:00:14;100061.66;;;6.74;100.00
47430;BME280;33181;49.246;7.372;2023-02-03T04:02:43;100047.13;;;6.68;100.00
47430;BME280;33181;49.246;7.372;2023-02-03T04:05:11;100053.81;;;6.74;100.00
47430;BME280;33181;49.246;7.372;2023-02-03T04:07:44;100037.66;;;6.66;100.00
47430;BME280;33181;49.246;7.372;2023-02-03T04:10:35;100043.50;;;6.71;100.00
47430;BME280;33181;49.246;7.372;2023-02-03T04:13:01;100046.19;;;6.69;100.00
47430;BME280;33181;49.246;7.372;2023-02-03T04:15:29;100043.50;;;6.71;100.00
47430;BME280;33181;49.246;7.372;2023-02-03T04:17:56;100044.31;;;6.73;100.00
47430;BME280;33181;49.246;7.372;2023-02-03T04:20:23;100039.69;;;6.59;100.00
47430;BME280;33181;49.246;7.372;2023-02-03T04:22:49;100052.34;;;6.68;100.00
47430;BME280;33181;49.246;7.372;2023-02-03T04:25:15;100048.81;;;6.69;100.00
47430;BME280;33181;49.246;7.372;2023-02-03T04:27:40;100038.94;;;6.76;100.00
47430;BME280;33181;49.246;7.372;2023-02-03T04:30:07;100046.13;;;6.71;100.00
47430;BME280;33181;49.246;7.372;2023-02-03T04:32:33;100063.09;;;6.81;100.00
47430;BME280;33181;49.246;7.372;2023-02-03T04:35:00;100058.78;;;6.80;100.00
47430;BME280;33181;49.246;7.372;2023-02-03T04:37:27;100062.50;;;6.74;100.00
47430;BME280;33181;49.246;7.372;2023-02-03T04:39:53;100069.16;;;6.82;100.00
47430;BME280;33181;49.246;7.372;2023-02-03T04:42:20;100069.22;;;6.80;100.00
47430;BME280;33181;49.246;7.372;2023-02-03T04:44:46;100066.59;;;6.80;100.00
47430;BME280;33181;49.246;7.372;2023-02-03T04:47:12;100081.50;;;6.78;100.00
47430;BME280;33181;49.246;7.372;2023-02-03T04:49:38;100070.31;;;6.74;100.00
47430;BME280;33181;49.246;7.372;2023-02-03T04:52:04;100058.31;;;6.70;100.00
47430;BME280;33181;49.246;7.372;2023-02-03T04:54:30;100066.88;;;6.74;100.00
47430;BME280;33181;49.246;7.372;2023-02-03T04:56:56;100062.78;;;6.68;100.00
47430;BME280;33181;49.246;7.372;2023-02-03T04:59:22;100076.28;;;6.58;100.00
47430;BME280;33181;49.246;7.372;2023-02-03T05:01:47;100082.16;;;6.63;100.00
47430;BME280;33181;49.246;7.372;2023-02-03T05:04:13;100067.53;;;6.59;100.00
47430;BME280;33181;49.246;7.372;2023-02-03T05:06:39;100070.94;;;6.61;100.00
47430;BME280;33181;49.246;7.372;2023-02-03T05:09:04;100081.13;;;6.67;100.00
47430;BME280;33181;49.246;7.372;2023-02-03T05:11:30;100072.31;;;6.69;100.00
47430;BME280;33181;49.246;7.372;2023-02-03T05:13:56;100066.63;;;6.60;100.00
47430;BME280;33181;49.246;7.372;2023-02-03T05:16:22;100077.66;;;6.66;100.00
47430;BME280;33181;49.246;7.372;2023-02-03T05:18:48;100065.13;;;6.54;100.00
47430;BME280;33181;49.246;7.372;2023-02-03T05:21:13;100072.75;;;6.59;100.00
47430;BME280;33181;49.246;7.372;2023-02-03T05:23:39;100078.72;;;6.62;100.00
47430;BME280;33181;49.246;7.372;2023-02-03T05:26:05;100073.53;;;6.61;100.00
47430;BME280;33181;49.246;7.372;2023-02-03T05:28:31;100044.03;;;6.59;100.00
47430;BME280;33181;49.246;7.372;2023-02-03T05:30:58;100033.81;;;6.54;100.00
47430;BME280;33181;49.246;7.372;2023-02-03T05:33:24;100044.59;;;6.46;100.00
47430;BME280;33181;49.246;7.372;2023-02-03T05:35:50;100053.41;;;6.44;100.00
47430;BME280;33181;49.246;7.372;2023-02-03T05:38:16;100054.38;;;6.41;100.00
47430;BME280;33181;49.246;7.372;2023-02-03T05:40:42;100059.63;;;6.40;100.00
47430;BME280;33181;49.246;7.372;2023-02-03T05:43:27;100056.63;;;6.49;100.00
47430;BME280;33181;49.246;7.372;2023-02-03T05:45:53;100051.75;;;6.41;100.00
47430;BME280;33181;49.246;7.372;2023-02-03T05:48:19;100048.34;;;6.39;100.00
47430;BME280;33181;49.246;7.372;2023-02-03T05:50:44;100039.50;;;6.43;100.00
47430;BME280;33181;49.246;7.372;2023-02-03T05:53:10;100020.44;;;6.41;100.00
47430;BME280;33181;49.246;7.372;2023-02-03T05:55:36;100033.38;;;6.44;100.00
47430;BME280;33181;49.246;7.372;2023-02-03T05:58:03;100045.56;;;6.44;100.00
47430;BME280;33181;49.246;7.372;2023-02-03T06:00:31;100047.13;;;6.48;100.00
47430;BME280;33181;49.246;7.372;2023-02-03T06:02:59;100033.88;;;6.53;100.00
47430;BME280;33181;49.246;7.372;2023-02-03T06:05:27;100030.41;;;6.52;100.00
47430;BME280;33181;49.246;7.372;2023-02-03T06:07:53;100045.22;;;6.52;100.00
47430;BME280;33181;49.246;7.372;2023-02-03T06:10:20;100042.69;;;6.50;100.00
47430;BME280;33181;49.246;7.372;2023-02-03T06:12:46;100047.97;;;6.48;100.00
47430;BME280;33181;49.246;7.372;2023-02-03T06:15:12;100038.06;;;6.57;100.00
47430;BME280;33181;49.246;7.372;2023-02-03T06:17:38;100036.16;;;6.60;100.00
47430;BME280;33181;49.246;7.372;2023-02-03T06:20:09;100051.09;;;6.57;100.00
47430;BME280;33181;49.246;7.372;2023-02-03T06:22:35;100056.47;;;6.54;100.00
47430;BME280;33181;49.246;7.372;2023-02-03T06:25:01;100056.38;;;6.55;100.00
47430;BME280;33181;49.246;7.372;2023-02-03T06:27:27;100049.38;;;6.56;100.00
47430;BME280;33181;49.246;7.372;2023-02-03T06:29:53;100048.63;;;6.54;100.00
47430;BME280;33181;49.246;7.372;2023-02-03T06:32:18;100063.63;;;6.48;100.00
47430;BME280;33181;49.246;7.372;2023-02-03T06:34:44;100062.06;;;6.44;100.00
47430;BME280;33181;49.246;7.372;2023-02-03T06:37:10;100058.63;;;6.44;100.00
47430;BME280;33181;49.246;7.372;2023-02-03T06:39:35;100054.63;;;6.35;100.00
47430;BME280;33181;49.246;7.372;2023-02-03T06:42:01;100051.88;;;6.38;100.00
47430;BME280;33181;49.246;7.372;2023-02-03T06:44:27;100056.31;;;6.36;100.00
47430;BME280;33181;49.246;7.372;2023-02-03T06:46:53;100044.78;;;6.42;100.00
47430;BME280;33181;49.246;7.372;2023-02-03T06:49:18;100043.34;;;6.35;100.00
47430;BME280;33181;49.246;7.372;2023-02-03T06:51:45;100043.84;;;6.43;100.00
47430;BME280;33181;49.246;7.372;2023-02-03T06:54:11;100045.97;;;6.35;100.00
47430;BME280;33181;49.246;7.372;2023-02-03T06:56:38;100056.00;;;6.44;100.00
47430;BME280;33181;49.246;7.372;2023-02-03T06:59:04;100054.09;;;6.47;100.00
47430;BME280;33181;49.246;7.372;2023-02-03T07:01:30;100046.41;;;6.44;100.00
47430;BME280;33181;49.246;7.372;2023-02-03T07:03:57;100049.56;;;6.53;100.00
47430;BME280;33181;49.246;7.372;2023-02-03T07:06:27;100050.31;;;6.55;100.00
47430;BME280;33181;49.246;7.372;2023-02-03T07:09:00;100033.09;;;6.50;100.00
47430;BME280;33181;49.246;7.372;2023-02-03T07:11:26;100029.06;;;6.43;100.00
47430;BME280;33181;49.246;7.372;2023-02-03T07:13:52;100027.94;;;6.49;100.00
47430;BME280;33181;49.246;7.372;2023-02-03T07:16:18;100028.72;;;6.51;100.00
47430;BME280;33181;49.246;7.372;2023-02-03T07:18:44;100021.69;;;6.53;100.00
47430;BME280;33181;49.246;7.372;2023-02-03T07:21:11;100028.84;;;6.48;100.00
47430;BME280;33181;49.246;7.372;2023-02-03T07:23:37;100029.69;;;6.48;100.00
47430;BME280;33181;49.246;7.372;2023-02-03T07:26:05;100039.38;;;6.46;100.00
47430;BME280;33181;49.246;7.372;2023-02-03T07:28:35;100051.41;;;6.49;100.00
47430;BME280;33181;49.246;7.372;2023-02-03T07:31:01;100051.25;;;6.54;100.00
47430;BME280;33181;49.246;7.372;2023-02-03T07:33:30;100054.47;;;6.59;100.00
47430;BME280;33181;49.246;7.372;2023-02-03T07:35:58;100070.13;;;6.59;100.00
47430;BME280;33181;49.246;7.372;2023-02-03T07:38:26;100077.97;;;6.59;100.00
47430;BME280;33181;49.246;7.372;2023-02-03T07:40:53;100080.28;;;6.66;100.00
47430;BME280;33181;49.246;7.372;2023-02-03T07:43:19;100082.88;;;6.66;100.00
47430;BME280;33181;49.246;7.372;2023-02-03T07:45:45;100078.31;;;6.71;100.00
47430;BME280;33181;49.246;7.372;2023-02-03T07:48:11;100085.41;;;6.68;100.00
47430;BME280;33181;49.246;7.372;2023-02-03T07:50:37;100084.06;;;6.59;100.00
47430;BME280;33181;49.246;7.372;2023-02-03T07:53:03;100090.53;;;6.50;100.00
47430;BME280;33181;49.246;7.372;2023-02-03T07:55:29;100110.09;;;6.61;100.00
47430;BME280;33181;49.246;7.372;2023-02-03T07:57:56;100107.47;;;6.61;100.00
47430;BME280;33181;49.246;7.372;2023-02-03T08:00:23;100114.34;;;6.63;100.00
47430;BME280;33181;49.246;7.372;2023-02-03T08:02:49;100127.28;;;6.66;100.00
47430;BME280;33181;49.246;7.372;2023-02-03T08:05:16;100123.22;;;6.59;100.00
47430;BME280;33181;49.246;7.372;2023-02-03T08:07:43;100119.34;;;6.68;100.00
47430;BME280;33181;49.246;7.372;2023-02-03T08:10:11;100125.63;;;6.64;100.00
47430;BME280;33181;49.246;7.372;2023-02-03T08:12:37;100131.53;;;6.69;100.00
47430;BME280;33181;49.246;7.372;2023-02-03T08:15:03;100129.66;;;6.71;100.00
47430;BME280;33181;49.246;7.372;2023-02-03T08:17:29;100132.09;;;6.76;100.00
47430;BME280;33181;49.246;7.372;2023-02-03T08:19:55;100131.13;;;6.78;100.00
47430;BME280;33181;49.246;7.372;2023-02-03T08:22:21;100134.44;;;6.82;100.00
47430;BME280;33181;49.246;7.372;2023-02-03T08:24:47;100115.47;;;6.78;100.00
47430;BME280;33181;49.246;7.372;2023-02-03T08:27:21;100119.94;;;6.74;100.00
47430;BME280;33181;49.246;7.372;2023-02-03T08:29:48;100120.94;;;6.72;100.00
47430;BME280;33181;49.246;7.372;2023-02-03T08:32:19;100117.16;;;6.79;100.00
47430;BME280;33181;49.246;7.372;2023-02-03T08:34:47;100119.34;;;6.68;100.00
47430;BME280;33181;49.246;7.372;2023-02-03T08:37:16;100116.50;;;6.74;100.00
47430;BME280;33181;49.246;7.372;2023-02-03T08:39:42;100119.94;;;6.74;100.00
47430;BME280;33181;49.246;7.372;2023-02-03T08:42:09;100117.16;;;6.79;100.00
47430;BME280;33181;49.246;7.372;2023-02-03T08:44:35;100114.31;;;6.84;100.00
47430;BME280;33181;49.246;7.372;2023-02-03T08:47:05;100097.81;;;6.83;100.00
47430;BME280;33181;49.246;7.372;2023-02-03T08:49:31;100092.59;;;6.83;100.00
47430;BME280;33181;49.246;7.372;2023-02-03T08:51:57;100100.88;;;6.93;100.00
47430;BME280;33181;49.246;7.372;2023-02-03T08:54:24;100103.44;;;6.94;100.00
47430;BME280;33181;49.246;7.372;2023-02-03T08:56:50;100113.34;;;6.86;100.00
47430;BME280;33181;49.246;7.372;2023-02-03T08:59:16;100110.56;;;6.91;100.00
47430;BME280;33181;49.246;7.372;2023-02-03T09:01:43;100123.47;;;6.94;100.00
47430;BME280;33181;49.246;7.372;2023-02-03T09:04:11;100111.00;;;7.01;100.00
47430;BME280;33181;49.246;7.372;2023-02-03T09:06:37;100117.34;;;6.95;100.00
47430;BME280;33181;49.246;7.372;2023-02-03T09:09:03;100127.06;;;6.91;100.00
47430;BME280;33181;49.246;7.372;2023-02-03T09:11:29;100130.53;;;6.92;100.00
47430;BME280;33181;49.246;7.372;2023-02-03T09:13:55;100121.63;;;6.96;100.00
47430;BME280;33181;49.246;7.372;2023-02-03T09:16:23;100140.19;;;6.90;100.00
47430;BME280;33181;49.246;7.372;2023-02-03T09:18:50;100145.84;;;7.00;100.00
47430;BME280;33181;49.246;7.372;2023-02-03T09:21:19;100156.50;;;6.95;100.00
47430;BME280;33181;49.246;7.372;2023-02-03T09:23:45;100145.84;;;7.00;100.00
47430;BME280;33181;49.246;7.372;2023-02-03T09:26:13;100128.75;;;6.92;100.00
47430;BME280;33181;49.246;7.372;2023-02-03T09:28:40;100138.09;;;6.98;100.00
47430;BME280;33181;49.246;7.372;2023-02-03T09:31:16;100128.84;;;6.91;100.00
47430;BME280;33181;49.246;7.372;2023-02-03T09:33:42;100125.50;;;6.87;100.00
47430;BME280;33181;49.246;7.372;2023-02-03T09:36:09;100118.78;;;6.82;100.00
47430;BME280;33181;49.246;7.372;2023-02-03T09:38:35;100127.25;;;6.87;100.00
47430;BME280;33181;49.246;7.372;2023-02-03T09:44:03;100109.50;;;6.95;100.00
47430;BME280;33181;49.246;7.372;2023-02-03T09:46:38;100123.16;;;6.81;100.00
47430;BME280;33181;49.246;7.372;2023-02-03T09:49:49;100117.69;;;6.87;100.00
47430;BME280;33181;49.246;7.372;2023-02-03T09:52:22;100126.22;;;6.91;100.00
47430;BME280;33181;49.246;7.372;2023-02-03T09:57:28;100126.69;;;7.01;100.00
47430;BME280;33181;49.246;7.372;2023-02-03T10:00:00;100119.31;;;7.09;100.00
47430;BME280;33181;49.246;7.372;2023-02-03T10:02:54;100112.38;;;7.09;100.00
47430;BME280;33181;49.246;7.372;2023-02-03T10:05:48;100114.25;;;7.06;100.00
47430;BME280;33181;49.246;7.372;2023-02-03T10:17:24;100101.13;;;7.07;100.00
47430;BME280;33181;49.246;7.372;2023-02-03T10:20:21;100116.44;;;7.15;100.00
47430;BME280;33181;49.246;7.372;2023-02-03T10:22:57;100114.34;;;7.23;100.00
47430;BME280;33181;49.246;7.372;2023-02-03T10:25:41;100127.41;;;7.23;100.00
47430;BME280;33181;49.246;7.372;2023-02-03T10:28:18;100118.38;;;7.30;100.00
47430;BME280;33181;49.246;7.372;2023-02-03T10:30:58;100108.41;;;7.19;100.00
47430;BME280;33181;49.246;7.372;2023-02-03T10:33:28;100111.31;;;7.32;100.00
47430;BME280;33181;49.246;7.372;2023-02-03T10:36:10;100112.09;;;7.34;100.00
47430;BME280;33181;49.246;7.372;2023-02-03T10:41:39;100117.53;;;7.49;100.00
47430;BME280;33181;49.246;7.372;2023-02-03T10:44:07;100108.78;;;7.50;100.00
47430;BME280;33181;49.246;7.372;2023-02-03T10:46:38;100112.88;;;7.55;100.00
47430;BME280;33181;49.246;7.372;2023-02-03T10:49:04;100108.59;;;7.54;100.00
47430;BME280;33181;49.246;7.372;2023-02-03T10:51:50;100100.78;;;7.53;100.00
47430;BME280;33181;49.246;7.372;2023-02-03T10:54:34;100102.22;;;7.41;100.00
47430;BME280;33181;49.246;7.372;2023-02-03T10:57:13;100088.41;;;7.37;100.00
47430;BME280;33181;49.246;7.372;2023-02-03T10:59:48;100090.97;;;7.39;100.00
47430;BME280;33181;49.246;7.372;2023-02-03T11:02:24;100081.72;;;7.51;100.00
47430;BME280;33181;49.246;7.372;2023-02-03T11:05:18;100072.41;;;7.45;100.00
47430;BME280;33181;49.246;7.372;2023-02-03T11:07:45;100074.72;;;7.51;100.00
47430;BME280;33181;49.246;7.372;2023-02-03T11:10:37;100066.31;;;7.63;99.96
47430;BME280;33181;49.246;7.372;2023-02-03T11:13:23;100071.03;;;7.55;100.00
47430;BME280;33181;49.246;7.372;2023-02-03T11:16:04;100065.25;;;7.49;100.00
47430;BME280;33181;49.246;7.372;2023-02-03T11:18:52;100067.72;;;7.52;100.00
47430;BME280;33181;49.246;7.372;2023-02-03T11:21:21;100064.13;;;7.54;100.00
47430;BME280;33181;49.246;7.372;2023-02-03T11:24:20;100053.66;;;7.54;100.00
47430;BME280;33181;49.246;7.372;2023-02-03T11:27:14;100060.16;;;7.46;100.00
47430;BME280;33181;49.246;7.372;2023-02-03T11:29:48;100037.34;;;7.49;100.00
47430;BME280;33181;49.246;7.372;2023-02-03T11:32:38;100053.97;;;7.48;99.84
47430;BME280;33181;49.246;7.372;2023-02-03T11:35:23;100043.28;;;7.53;99.83
47430;BME280;33181;49.246;7.372;2023-02-03T11:37:56;100055.72;;;7.48;100.00
47430;BME280;33181;49.246;7.372;2023-02-03T11:40:31;100062.72;;;7.47;100.00
47430;BME280;33181;49.246;7.372;2023-02-03T11:43:23;100064.47;;;7.47;99.92
47430;BME280;33181;49.246;7.372;2023-02-03T11:45:51;100061.66;;;7.51;100.00
47430;BME280;33181;49.246;7.372;2023-02-03T11:48:45;100062.13;;;7.40;100.00
47430;BME280;33181;49.246;7.372;2023-02-03T11:57:20;100065.53;;;7.42;100.00
47430;BME280;33181;49.246;7.372;2023-02-03T12:00:19;100053.25;;;7.45;100.00
47430;BME280;33181;49.246;7.372;2023-02-03T12:06:23;100055.59;;;7.32;100.00
47430;BME280;33181;49.246;7.372;2023-02-03T12:09:09;100055.38;;;7.36;100.00
47430;BME280;33181;49.246;7.372;2023-02-03T12:15:39;100052.91;;;7.33;100.00
47430;BME280;33181;49.246;7.372;2023-02-03T12:18:27;100051.41;;;7.28;100.00
47430;BME280;33181;49.246;7.372;2023-02-03T12:27:45;100100.19;;;7.48;100.00
47430;BME280;33181;49.246;7.372;2023-02-03T12:30:24;100096.41;;;7.53;100.00
47430;BME280;33181;49.246;7.372;2023-02-03T12:32:57;100104.25;;;7.53;100.00
47430;BME280;33181;49.246;7.372;2023-02-03T12:38:30;100101.22;;;7.43;100.00
47430;BME280;33181;49.246;7.372;2023-02-03T12:41:00;100103.91;;;7.42;100.00
47430;BME280;33181;49.246;7.372;2023-02-03T12:43:39;100097.69;;;7.45;100.00
47430;BME280;33181;49.246;7.372;2023-02-03T12:46:18;100098.69;;;7.42;100.00
47430;BME280;33181;49.246;7.372;2023-02-03T12:49:29;100069.09;;;7.41;100.00
47430;BME280;33181;49.246;7.372;2023-02-03T12:52:07;100045.41;;;7.45;100.00
47430;BME280;33181;49.246;7.372;2023-02-03T12:57:36;100031.19;;;7.31;100.00
47430;BME280;33181;49.246;7.372;2023-02-03T13:00:26;100041.38;;;7.37;100.00
47430;BME280;33181;49.246;7.372;2023-02-03T13:09:01;100049.00;;;7.42;100.00
47430;BME280;33181;49.246;7.372;2023-02-03T13:11:39;100044.72;;;7.41;100.00
47430;BME280;33181;49.246;7.372;2023-02-03T13:14:30;100034.72;;;7.49;100.00
47430;BME280;33181;49.246;7.372;2023-02-03T13:17:12;100018.78;;;7.36;100.00
47430;BME280;33181;49.246;7.372;2023-02-03T13:19:47;100001.47;;;7.34;100.00
47430;BME280;33181;49.246;7.372;2023-02-03T13:22:15;100003.22;;;7.33;100.00
47430;BME280;33181;49.246;7.372;2023-02-03T13:24:51;100003.78;;;7.40;100.00
47430;BME280;33181;49.246;7.372;2023-02-03T13:27:50;99995.16;;;7.57;100.00
47430;BME280;33181;49.246;7.372;2023-02-03T13:30:46;99990.69;;;7.59;100.00
47430;BME280;33181;49.246;7.372;2023-02-03T13:33:59;99962.06;;;7.56;100.00
47430;BME280;33181;49.246;7.372;2023-02-03T13:40:14;99970.91;;;7.53;100.00
47430;BME280;33181;49.246;7.372;2023-02-03T13:42:27;99977.84;;;7.54;100.00
47430;BME280;33181;49.246;7.372;2023-02-03T13:47:38;99987.09;;;7.61;100.00
47430;BME280;33181;49.246;7.372;2023-02-03T13:50:26;99997.94;;;7.54;100.00
47430;BME280;33181;49.246;7.372;2023-02-03T13:53:02;99991.53;;;7.59;100.00
47430;BME280;33181;49.246;7.372;2023-02-03T13:55:39;99985.91;;;7.50;100.00
47430;BME280;33181;49.246;7.372;2023-02-03T13:58:21;99996.28;;;7.51;100.00
47430;BME280;33181;49.246;7.372;2023-02-03T14:03:17;99991.47;;;7.61;100.00
47430;BME280;33181;49.246;7.372;2023-02-03T14:05:48;99987.88;;;7.63;100.00
47430;BME280;33181;49.246;7.372;2023-02-03T14:08:45;99976.13;;;7.53;100.00
47430;BME280;33181;49.246;7.372;2023-02-03T14:16:47;99972.38;;;7.41;100.00
47430;BME280;33181;49.246;7.372;2023-02-03T14:21:59;99990.72;;;7.40;100.00
47430;BME280;33181;49.246;7.372;2023-02-03T14:24:40;99985.28;;;7.45;100.00
47430;BME280;33181;49.246;7.372;2023-02-03T14:27:23;99984.44;;;7.44;100.00
47430;BME280;33181;49.246;7.372;2023-02-03T14:30:05;99988.66;;;7.47;100.00
47430;BME280;33181;49.246;7.372;2023-02-03T14:33:04;99987.22;;;7.41;100.00
47430;BME280;33181;49.246;7.372;2023-02-03T14:35:36;99993.75;;;7.50;100.00
47430;BME280;33181;49.246;7.372;2023-02-03T14:38:14;100000.03;;;7.46;100.00
47430;BME280;33181;49.246;7.372;2023-02-03T14:40:53;99999.91;;;7.49;100.00